createdAt,value
2022-10-10T00:02:48.238Z,101509.30
2022-10-10T00:05:40.686Z,101513.84
2022-10-10T00:08:28.399Z,101516.97
2022-10-10T00:11:34.221Z,101513.39
2022-10-10T00:14:35.425Z,101512.90
2022-10-10T00:17:36.348Z,101515.41
2022-10-10T00:20:06.128Z,101509.66
2022-10-10T00:22:48.564Z,101507.81
2022-10-10T00:25:41.302Z,101509.73
2022-10-10T00:28:40.667Z,101506.15
2022-10-10T00:31:53.136Z,101503.17
2022-10-10T00:34:42.955Z,101501.05
2022-10-10T00:37:45.735Z,101503.08
2022-10-10T00:40:29.684Z,101499.30
2022-10-10T00:43:28.632Z,101496.48
2022-10-10T00:46:23.624Z,101493.12
2022-10-10T00:49:15.223Z,101491.23
2022-10-10T00:52:09.981Z,101489.58
2022-10-10T00:54:56.219Z,101487.76
2022-10-10T00:57:53.848Z,101486.81
2022-10-10T01:00:43.603Z,101485.48
2022-10-10T01:03:24.055Z,101484.51
2022-10-10T01:06:25.336Z,101482.85
2022-10-10T01:09:27.015Z,101483.11
2022-10-10T01:12:27.785Z,101483.59
2022-10-10T01:15:42.927Z,101488.22
2022-10-10T01:18:36.514Z,101489.08
2022-10-10T01:21:53.614Z,101489.44
2022-10-10T01:24:42.341Z,101494.80
2022-10-10T01:28:21.893Z,101495.91
2022-10-10T01:31:17.220Z,101495.27
2022-10-10T01:34:38.196Z,101493.86
2022-10-10T01:37:47.859Z,101495.38
2022-10-10T01:41:34.348Z,101497.26
2022-10-10T01:44:25.764Z,101498.06
2022-10-10T01:47:16.556Z,101497.99
2022-10-10T01:50:05.525Z,101498.64
2022-10-10T01:52:57.830Z,101497.85
2022-10-10T01:56:03.054Z,101492.05
2022-10-10T01:59:17.917Z,101497.85
2022-10-10T02:02:06.703Z,101496.84
2022-10-10T02:04:51.869Z,101492.10
2022-10-10T02:08:01.461Z,101491.52
2022-10-10T02:10:53.851Z,101495.52
2022-10-10T02:14:05.950Z,101492.11
2022-10-10T02:17:25.088Z,101495.48
2022-10-10T02:20:39.675Z,101491.96
2022-10-10T02:23:43.068Z,101502.63
2022-10-10T02:26:21.427Z,101501.41
2022-10-10T02:30:00.966Z,101498.97
2022-10-10T02:33:00.424Z,101495.84
2022-10-10T02:35:51.070Z,101490.29
2022-10-10T02:38:39.470Z,101486.54
2022-10-10T02:41:48.651Z,101483.04
2022-10-10T02:44:23.386Z,101475.94
2022-10-10T02:50:35.977Z,101470.15
2022-10-10T02:54:01.567Z,101464.80
2022-10-10T02:56:54.891Z,101459.13
2022-10-10T02:59:42.510Z,101449.48
2022-10-10T03:02:51.538Z,101446.41
2022-10-10T03:05:50.779Z,101450.02
2022-10-10T03:09:06.663Z,101455.27
2022-10-10T03:12:04.385Z,101461.19
2022-10-10T03:14:42.939Z,101468.29
2022-10-10T03:17:24.164Z,101470.19
2022-10-10T03:20:20.674Z,101470.94
2022-10-10T03:23:00.676Z,101474.29
2022-10-10T03:25:47.926Z,101467.86
2022-10-10T03:28:20.383Z,101468.33
2022-10-10T03:33:54.553Z,101472.88
2022-10-10T03:36:51.334Z,101470.80
2022-10-10T03:40:06.718Z,101470.94
2022-10-10T03:42:57.503Z,101479.35
2022-10-10T03:45:43.703Z,101480.52
2022-10-10T03:48:27.530Z,101482.39
2022-10-10T03:51:19.181Z,101481.67
2022-10-10T03:54:25.447Z,101479.63
2022-10-10T03:57:14.159Z,101477.68
2022-10-10T03:59:54.363Z,101475.48
2022-10-10T04:02:26.142Z,101473.08
2022-10-10T04:04:57.481Z,101470.73
2022-10-10T04:07:42.163Z,101471.27
2022-10-10T04:10:37.718Z,101466.50
2022-10-10T04:14:12.556Z,101465.96
2022-10-10T04:16:49.737Z,101462.92
2022-10-10T04:20:08.631Z,101459.55
2022-10-10T04:22:53.858Z,101462.56
2022-10-10T04:25:44.772Z,101464.18
2022-10-10T04:28:26.005Z,101460.29
2022-10-10T04:31:02.040Z,101458.89
2022-10-10T04:34:01.382Z,101451.57
2022-10-10T04:36:52.931Z,101451.21
2022-10-10T04:39:23.057Z,101452.78
2022-10-10T04:42:08.088Z,101451.02
2022-10-10T04:44:50.445Z,101451.81
2022-10-10T04:47:27.011Z,101453.05
2022-10-10T04:50:25.169Z,101446.98
2022-10-10T04:53:08.104Z,101446.46
2022-10-10T04:56:20.712Z,101448.11
2022-10-10T04:59:18.181Z,101449.19
2022-10-10T05:02:06.793Z,101454.45
2022-10-10T05:04:51.233Z,101465.29
2022-10-10T05:07:44.765Z,101470.29
2022-10-10T05:10:25.297Z,101473.39
2022-10-10T05:12:58.548Z,101473.69
2022-10-10T05:15:46.850Z,101474.36
2022-10-10T05:18:30.589Z,101474.25
2022-10-10T05:21:11.627Z,101474.37
2022-10-10T05:24:00.899Z,101470.36
2022-10-10T05:27:22.436Z,101467.48
2022-10-10T05:33:58.893Z,101466.24
2022-10-10T05:37:17.350Z,101466.21
2022-10-10T05:40:14.044Z,101466.00
2022-10-10T05:43:15.270Z,101465.96
2022-10-10T05:45:55.783Z,101468.89
2022-10-10T05:48:43.531Z,101466.24
2022-10-10T05:51:40.076Z,101462.66
2022-10-10T05:54:27.436Z,101467.23
2022-10-10T05:57:16.214Z,101466.46
2022-10-10T05:59:44.940Z,101463.71
2022-10-10T06:02:23.177Z,101465.27
2022-10-10T06:05:04.727Z,101465.39
2022-10-10T06:08:03.582Z,101458.91
2022-10-10T06:11:15.874Z,101460.08
2022-10-10T06:13:54.421Z,101457.17
2022-10-10T06:16:53.247Z,101453.74
2022-10-10T06:19:55.453Z,101450.39
2022-10-10T06:22:48.737Z,101450.78
2022-10-10T06:25:53.563Z,101449.25
2022-10-10T06:28:35.885Z,101442.76
2022-10-10T06:31:15.561Z,101446.88
2022-10-10T06:33:58.122Z,101452.27
2022-10-10T06:37:16.583Z,101456.58
2022-10-10T06:40:07.626Z,101453.52
2022-10-10T06:42:38.574Z,101449.83
2022-10-10T06:45:17.270Z,101453.11
2022-10-10T06:47:50.276Z,101450.04
2022-10-10T06:51:04.430Z,101447.17
2022-10-10T06:54:08.124Z,101444.89
2022-10-10T06:56:44.448Z,101442.15
2022-10-10T06:59:21.279Z,101437.81
2022-10-10T07:02:00.108Z,101435.73
2022-10-10T07:04:28.680Z,101435.55
2022-10-10T07:07:12.492Z,101431.29
2022-10-10T07:10:19.611Z,101435.41
2022-10-10T07:13:13.246Z,101438.23
2022-10-10T07:16:11.613Z,101437.98
2022-10-10T07:18:54.211Z,101435.86
2022-10-10T07:22:02.950Z,101438.46
2022-10-10T07:24:49.052Z,101442.41
2022-10-10T07:27:37.137Z,101444.66
2022-10-10T07:30:41.790Z,101443.69
2022-10-10T07:33:27.261Z,101444.55
2022-10-10T07:36:16.736Z,101445.77
2022-10-10T07:39:06.607Z,101445.85
2022-10-10T07:42:00.300Z,101444.19
2022-10-10T07:45:00.070Z,101441.49
2022-10-10T07:47:53.228Z,101437.50
2022-10-10T07:50:48.881Z,101433.77
2022-10-10T07:53:34.178Z,101433.11
2022-10-10T07:56:27.716Z,101435.09
2022-10-10T07:59:35.790Z,101429.59
2022-10-10T08:02:28.491Z,101426.74
2022-10-10T08:05:39.154Z,101424.34
2022-10-10T08:08:32.975Z,101418.83
2022-10-10T08:11:33.088Z,101415.42
2022-10-10T08:14:39.483Z,101410.83
2022-10-10T08:17:16.581Z,101407.17
2022-10-10T08:20:01.348Z,101409.07
2022-10-10T08:22:45.042Z,101405.16
2022-10-10T08:26:11.841Z,101405.75
2022-10-10T08:28:51.519Z,101397.83
2022-10-10T08:31:31.384Z,101400.76
2022-10-10T08:34:25.274Z,101395.98
2022-10-10T08:37:15.783Z,101389.20
2022-10-10T08:40:04.775Z,101384.47
2022-10-10T08:42:54.867Z,101381.11
2022-10-10T08:45:50.028Z,101383.33
2022-10-10T08:48:40.917Z,101382.06
2022-10-10T08:51:16.560Z,101381.11
2022-10-10T08:53:57.826Z,101375.48
2022-10-10T08:56:56.879Z,101374.53
2022-10-10T08:59:50.782Z,101370.27
2022-10-10T09:06:54.917Z,101357.02
2022-10-10T09:10:15.142Z,101356.61
2022-10-10T09:13:00.923Z,101351.83
2022-10-10T09:16:15.418Z,101344.14
2022-10-10T09:19:07.850Z,101340.77
2022-10-10T09:21:38.484Z,101343.79
2022-10-10T09:24:32.900Z,101343.62
2022-10-10T09:27:25.383Z,101342.17
2022-10-10T09:30:14.894Z,101339.76
2022-10-10T09:32:53.124Z,101335.48
2022-10-10T09:35:39.272Z,101331.55
2022-10-10T09:38:31.633Z,101334.66
2022-10-10T09:42:01.407Z,101327.44
2022-10-10T09:44:41.558Z,101324.39
2022-10-10T09:47:27.393Z,101323.08
2022-10-10T09:50:11.961Z,101322.25
2022-10-10T09:53:17.085Z,101317.10
2022-10-10T09:55:54.675Z,101319.25
2022-10-10T09:58:40.859Z,101316.09
2022-10-10T10:01:30.663Z,101320.02
2022-10-10T10:04:29.055Z,101322.34
2022-10-10T10:07:29.595Z,101314.56
2022-10-10T10:10:26.393Z,101312.61
2022-10-10T10:13:12.271Z,101308.39
2022-10-10T10:16:04.680Z,101305.21
2022-10-10T10:18:45.189Z,101305.45
2022-10-10T10:21:25.025Z,101302.35
2022-10-10T10:24:24.314Z,101300.98
2022-10-10T10:27:17.554Z,101294.11
2022-10-10T10:30:23.691Z,101288.11
2022-10-10T10:33:14.909Z,101282.34
2022-10-10T10:36:05.415Z,101278.51
2022-10-10T10:39:07.136Z,101272.71
2022-10-10T10:41:51.460Z,101269.56
2022-10-10T10:44:57.712Z,101258.86
2022-10-10T10:47:51.949Z,101254.67
2022-10-10T10:50:51.696Z,101254.30
2022-10-10T10:53:54.006Z,101252.52
2022-10-10T10:56:48.491Z,101248.95
2022-10-10T11:01:20.240Z,101248.02
2022-10-10T11:05:16.364Z,101242.32
2022-10-10T11:07:38.146Z,101239.50
2022-10-10T11:10:52.021Z,101235.20
2022-10-10T11:13:55.241Z,101229.70
2022-10-10T11:16:51.777Z,101225.77
2022-10-10T11:19:56.429Z,101225.94
2022-10-10T11:23:13.728Z,101220.30
2022-10-10T11:26:11.092Z,101216.27
2022-10-10T11:29:47.889Z,101219.52
2022-10-10T11:33:00.423Z,101211.10
2022-10-10T11:35:42.668Z,101201.31
2022-10-10T11:38:30.690Z,101202.67
2022-10-10T11:41:43.637Z,101201.97
2022-10-10T11:44:39.394Z,101196.11
2022-10-10T11:48:12.082Z,101190.83
2022-10-10T11:51:16.144Z,101188.25
2022-10-10T11:53:48.354Z,101183.73
2022-10-10T11:56:46.077Z,101179.05
2022-10-10T12:00:03.002Z,101178.16
2022-10-10T12:02:45.206Z,101170.77
2022-10-10T12:06:01.108Z,101162.72
2022-10-10T12:09:10.658Z,101153.75
2022-10-10T12:11:59.196Z,101151.37
2022-10-10T12:14:46.929Z,101144.48
2022-10-10T12:17:44.505Z,101134.13
2022-10-10T12:20:41.746Z,101121.88
2022-10-10T12:23:37.286Z,101119.55
2022-10-10T12:26:39.328Z,101117.77
2022-10-10T12:29:30.786Z,101112.94
2022-10-10T12:32:40.397Z,101108.18
2022-10-10T12:35:34.253Z,101101.00
2022-10-10T12:38:28.908Z,101096.98
2022-10-10T12:41:34.433Z,101089.02
2022-10-10T12:44:25.623Z,101086.59
2022-10-10T12:47:46.236Z,101081.42
2022-10-10T12:51:09.775Z,101078.34
2022-10-10T12:53:54.652Z,101075.48
2022-10-10T12:57:04.941Z,101079.14
2022-10-10T12:59:47.263Z,101069.41
2022-10-10T13:02:41.267Z,101059.98
2022-10-10T13:05:17.516Z,101056.53
2022-10-10T13:08:07.453Z,101051.25
2022-10-10T13:10:51.299Z,101051.17
2022-10-10T13:13:24.926Z,101049.00
2022-10-10T13:16:17.507Z,101040.41
2022-10-10T13:19:02.624Z,101036.25
2022-10-10T13:21:36.988Z,101029.42
2022-10-10T13:24:14.049Z,101024.90
2022-10-10T13:26:53.801Z,101019.92
2022-10-10T13:30:04.312Z,101016.81
2022-10-10T13:32:58.303Z,101011.63
2022-10-10T13:36:18.573Z,101001.85
2022-10-10T13:39:07.619Z,100997.61
2022-10-10T13:42:49.736Z,100997.36
2022-10-10T13:45:55.770Z,100992.42
2022-10-10T13:48:57.365Z,100988.61
2022-10-10T13:51:45.046Z,100991.46
2022-10-10T13:54:39.407Z,100986.85
2022-10-10T13:57:18.200Z,100984.28
2022-10-10T13:59:58.192Z,100981.80
2022-10-10T14:02:50.958Z,100980.13
2022-10-10T14:05:41.001Z,100973.80
2022-10-10T14:08:39.141Z,100969.27
2022-10-10T14:11:08.672Z,100966.93
2022-10-10T14:13:54.539Z,100964.66
2022-10-10T14:17:04.785Z,100963.55
2022-10-10T14:20:13.379Z,100958.16
2022-10-10T14:23:01.862Z,100951.09
2022-10-10T14:25:45.065Z,100946.86
2022-10-10T14:31:38.474Z,100939.47
2022-10-10T14:34:20.353Z,100937.77
2022-10-10T14:37:12.750Z,100934.45
2022-10-10T14:39:59.139Z,100933.16
2022-10-10T14:42:46.096Z,100932.84
2022-10-10T14:45:21.177Z,100931.13
2022-10-10T14:47:54.478Z,100932.21
2022-10-10T14:50:51.525Z,100929.72
2022-10-10T14:53:39.273Z,100929.04
2022-10-10T14:56:20.326Z,100923.54
2022-10-10T14:59:49.342Z,100922.19
2022-10-10T15:02:40.817Z,100922.33
2022-10-10T15:05:36.180Z,100917.14
2022-10-10T15:08:11.180Z,100922.71
2022-10-10T15:11:05.923Z,100916.93
2022-10-10T15:13:54.203Z,100910.20
2022-10-10T15:16:38.360Z,100907.38
2022-10-10T15:19:27.315Z,100906.39
2022-10-10T15:22:30.272Z,100901.82
2022-10-10T15:25:10.901Z,100902.78
2022-10-10T15:28:08.801Z,100901.94
2022-10-10T15:31:29.780Z,100899.33
2022-10-10T15:37:30.744Z,100903.45
2022-10-10T15:40:40.033Z,100902.51
2022-10-10T15:43:51.637Z,100898.90
2022-10-10T15:46:31.448Z,100904.23
2022-10-10T15:49:07.987Z,100903.79
2022-10-10T15:51:52.926Z,100904.74
2022-10-10T15:54:38.322Z,100906.55
2022-10-10T15:57:23.753Z,100901.81
2022-10-10T16:00:14.874Z,100897.77
2022-10-10T16:02:52.140Z,100892.45
2022-10-10T16:05:28.972Z,100895.86
2022-10-10T16:08:04.951Z,100902.02
2022-10-10T16:10:52.909Z,100909.05
2022-10-10T16:13:41.105Z,100911.61
2022-10-10T16:16:45.496Z,100917.66
2022-10-10T16:19:30.420Z,100911.63
2022-10-10T16:22:27.140Z,100909.88
2022-10-10T16:25:22.170Z,100913.29
2022-10-10T16:28:34.415Z,100915.30
2022-10-10T16:34:21.594Z,100912.92
2022-10-10T16:37:04.503Z,100912.33
2022-10-10T16:39:57.973Z,100906.91
2022-10-10T16:42:51.652Z,100907.90
2022-10-10T16:45:26.525Z,100903.58
2022-10-10T16:48:26.572Z,100905.38
2022-10-10T16:51:15.675Z,100906.47
2022-10-10T16:53:46.934Z,100904.64
2022-10-10T16:56:40.061Z,100905.10
2022-10-10T16:59:19.778Z,100900.82
2022-10-10T17:02:24.782Z,100900.30
2022-10-10T17:05:24.240Z,100899.31
2022-10-10T17:08:26.803Z,100894.73
2022-10-10T17:10:59.178Z,100891.58
2022-10-10T17:13:44.455Z,100891.61
2022-10-10T17:19:49.034Z,100876.58
2022-10-10T17:22:42.508Z,100870.73
2022-10-10T17:25:32.179Z,100866.22
2022-10-10T17:28:30.509Z,100860.58
2022-10-10T17:31:42.754Z,100858.57
2022-10-10T17:37:46.758Z,100852.56
2022-10-10T17:40:47.806Z,100849.00
2022-10-10T17:43:25.684Z,100840.91
2022-10-10T17:46:32.621Z,100835.65
2022-10-10T17:49:11.770Z,100833.70
2022-10-10T17:51:52.629Z,100836.71
2022-10-10T17:54:34.411Z,100836.50
2022-10-10T17:57:28.911Z,100834.55
2022-10-10T17:59:59.920Z,100835.75
2022-10-10T18:02:34.894Z,100835.08
2022-10-10T18:05:33.861Z,100833.55
2022-10-10T18:08:19.142Z,100835.52
2022-10-10T18:11:13.050Z,100837.13
2022-10-10T18:13:52.213Z,100832.70
2022-10-10T18:16:26.979Z,100828.66
2022-10-10T18:19:15.723Z,100828.04
2022-10-10T18:22:16.078Z,100824.92
2022-10-10T18:25:01.171Z,100821.31
2022-10-10T18:27:49.533Z,100821.46
2022-10-10T18:30:39.673Z,100822.40
2022-10-10T18:33:23.113Z,100819.66
2022-10-10T18:36:12.669Z,100820.02
2022-10-10T18:38:53.322Z,100817.04
2022-10-10T18:41:41.482Z,100813.42
2022-10-10T18:44:30.695Z,100809.66
2022-10-10T18:47:25.869Z,100806.23
2022-10-10T18:50:00.055Z,100808.05
2022-10-10T18:52:52.357Z,100801.30
2022-10-10T18:55:37.598Z,100798.41
2022-10-10T18:58:40.159Z,100801.02
2022-10-10T19:01:23.719Z,100800.66
2022-10-10T19:04:15.369Z,100805.16
2022-10-10T19:07:18.848Z,100806.60
2022-10-10T19:10:06.279Z,100802.23
2022-10-10T19:12:42.869Z,100798.58
2022-10-10T19:15:34.398Z,100796.61
2022-10-10T19:18:23.727Z,100795.11
2022-10-10T19:21:04.143Z,100795.17
2022-10-10T19:23:44.827Z,100792.27
2022-10-10T19:26:35.732Z,100790.79
2022-10-10T19:29:11.376Z,100783.41
2022-10-10T19:32:01.873Z,100780.44
2022-10-10T19:34:38.820Z,100775.67
2022-10-10T19:37:21.725Z,100773.65
2022-10-10T19:40:02.064Z,100767.71
2022-10-10T19:42:54.441Z,100765.26
2022-10-10T19:45:25.437Z,100762.30
2022-10-10T19:47:54.626Z,100761.29
2022-10-10T19:50:38.271Z,100756.16
2022-10-10T19:53:31.270Z,100752.21
2022-10-10T19:56:14.853Z,100752.70
2022-10-10T19:58:56.960Z,100748.64
2022-10-10T20:01:46.538Z,100751.09
2022-10-10T20:04:40.154Z,100753.61
2022-10-10T20:07:17.674Z,100751.08
2022-10-10T20:09:59.421Z,100749.94
2022-10-10T20:12:48.883Z,100747.84
2022-10-10T20:15:51.629Z,100749.21
2022-10-10T20:18:21.782Z,100743.74
2022-10-10T20:20:52.700Z,100739.91
2022-10-10T20:23:30.295Z,100740.86
2022-10-10T20:26:23.084Z,100735.42
2022-10-10T20:29:07.724Z,100736.87
2022-10-10T20:31:39.750Z,100731.96
2022-10-10T20:34:12.405Z,100730.10
2022-10-10T20:37:01.852Z,100728.36
2022-10-10T20:39:47.547Z,100724.98
2022-10-10T20:42:20.829Z,100724.03
2022-10-10T20:44:56.046Z,100721.10
2022-10-10T20:47:34.513Z,100722.02
2022-10-10T20:50:36.144Z,100719.00
2022-10-10T20:53:22.530Z,100717.98
2022-10-10T20:56:14.952Z,100716.92
2022-10-10T20:58:53.354Z,100715.81
2022-10-10T21:01:28.534Z,100714.56
2022-10-10T21:03:58.671Z,100713.72
2022-10-10T21:06:42.179Z,100713.80
2022-10-10T21:09:37.081Z,100714.92
2022-10-10T21:12:04.656Z,100711.59
2022-10-10T21:14:42.103Z,100711.44
2022-10-10T21:17:36.445Z,100707.27
2022-10-10T21:20:42.709Z,100703.09
2022-10-10T21:23:14.254Z,100698.73
2022-10-10T21:25:48.640Z,100694.09
2022-10-10T21:28:36.355Z,100692.30
2022-10-10T21:31:42.441Z,100692.42
2022-10-10T21:34:45.633Z,100692.14
2022-10-10T21:37:33.180Z,100688.66
2022-10-10T21:40:06.247Z,100684.65
2022-10-10T21:43:03.432Z,100685.43
2022-10-10T21:45:44.091Z,100681.07
2022-10-10T21:48:19.450Z,100678.95
2022-10-10T21:51:05.227Z,100676.66
2022-10-10T21:53:47.305Z,100674.42
2022-10-10T21:56:24.329Z,100671.75
2022-10-10T21:59:11.859Z,100674.68
2022-10-10T22:02:11.230Z,100681.05
2022-10-10T22:04:49.505Z,100678.05
2022-10-10T22:07:23.376Z,100674.98
2022-10-10T22:09:55.367Z,100672.64
2022-10-10T22:12:39.447Z,100668.94
2022-10-10T22:15:14.515Z,100661.52
2022-10-10T22:17:55.662Z,100659.79
2022-10-10T22:20:27.908Z,100661.14
2022-10-10T22:23:11.772Z,100658.98
2022-10-10T22:25:51.935Z,100654.53
2022-10-10T22:28:27.191Z,100659.23
2022-10-10T22:31:23.557Z,100655.00
2022-10-10T22:33:53.829Z,100656.20
2022-10-10T22:36:38.984Z,100652.52
2022-10-10T22:39:18.043Z,100650.61
2022-10-10T22:41:57.812Z,100646.29
2022-10-10T22:44:40.136Z,100645.02
2022-10-10T22:47:10.579Z,100642.91
2022-10-10T22:49:49.534Z,100641.85
2022-10-10T22:52:39.257Z,100641.17
2022-10-10T22:55:48.298Z,100637.38
2022-10-10T22:58:34.713Z,100632.04
2022-10-10T23:01:26.953Z,100631.45
2022-10-10T23:04:13.113Z,100630.44
2022-10-10T23:07:07.608Z,100629.58
2022-10-10T23:09:50.887Z,100622.65
2022-10-10T23:12:43.311Z,100622.20
2022-10-10T23:15:28.785Z,100619.77
2022-10-10T23:21:15.508Z,100623.19
2022-10-10T23:24:07.438Z,100622.23
2022-10-10T23:26:43.324Z,100619.55
2022-10-10T23:29:37.760Z,100614.02
2022-10-10T23:32:28.801Z,100615.20
2022-10-10T23:35:20.887Z,100612.11
2022-10-10T23:37:58.769Z,100614.41
2022-10-10T23:40:32.140Z,100609.95
2022-10-10T23:43:17.119Z,100607.05
2022-10-10T23:45:47.776Z,100602.01
2022-10-10T23:48:35.719Z,100599.31
2022-10-10T23:51:27.334Z,100599.17
2022-10-10T23:54:14.649Z,100599.46
2022-10-10T23:57:07.411Z,100599.86
2022-10-10T23:59:44.480Z,100598.61
